KLVJ

Details ICAO KLVJ
Name Pearland Rgnl
Region United States
Timezone America/Chicago (UTC-5.0)
Plans Departing 37
Arriving 8
Stats Elevation 44 ft / 13 m (AMSL)
Location 29.521287° -95.242152°
Runways 1
Magnetic Variation 2.370° E
Sunrise 2018-05-25 11:24:59 UTC / 2018-05-25 06:24:59 Local
Sunset 2018-05-26 01:13:45 UTC / 2018-05-25 20:13:45 Local
Advertisement - Login to hide

Runways

ID Width Length Bearing (true) Bearing (mag) Surface Threshold Offset Overrun Length
14 75 ft / 23 m 4,320 ft / 1,317 m 144.81° 142.44° Asphalt 0 ft / 0 m 0 ft / 0 m
32 75 ft / 23 m 4,320 ft / 1,317 m 324.81° 322.44° Asphalt 0 ft / 0 m 0 ft / 0 m

Map

Weather


0- 5 10 15 20 25 30 35+ Temperature / ° C

Clouds and Precipitation
Forecast for 2018-05-25 12:00 UTC. Updated 19 minutes ago

Ground ~20,000 ft ~40,000 ft Winds

METAR

KLVJ 250853Z AUTO 00000KT 10SM CLR 22/22 A2998 RMK AO2 SLP151 T02220217 58012

TAF

Not found

Frequencies

Recorded 118.52 MHz ASOS
Clearance 124.00 MHz CLNC DEL
Unicom 122.80 MHz CTAF/UNICOM
Approach 134.45 MHz HOUSTON APP/DEP
Warning: Do not use this data for real-world aviation or navigation. No guarantee of current accuracy is given.